createdAt,value
2023-05-15T00:01:38.359Z,56.48
2023-05-15T00:04:05.525Z,56.96
2023-05-15T00:06:32.456Z,56.40
2023-05-15T00:08:59.299Z,56.69
2023-05-15T00:11:27.406Z,56.81
2023-05-15T00:13:54.317Z,57.47
2023-05-15T00:16:21.507Z,56.88
2023-05-15T00:18:48.625Z,57.44
2023-05-15T00:21:16.485Z,57.87
2023-05-15T00:23:43.326Z,58.00
2023-05-15T00:26:10.472Z,58.27
2023-05-15T00:28:37.318Z,58.64
2023-05-15T00:31:04.535Z,58.94
2023-05-15T00:33:33.053Z,59.04
2023-05-15T00:35:59.885Z,58.44
2023-05-15T00:38:26.634Z,58.86
2023-05-15T00:40:54.911Z,58.79
2023-05-15T00:43:23.288Z,59.08
2023-05-15T00:45:52.486Z,59.59
2023-05-15T00:48:22.069Z,59.73
2023-05-15T00:50:53.132Z,59.79
2023-05-15T00:53:20.177Z,59.40
2023-05-15T00:55:47.025Z,59.31
2023-05-15T00:58:14.996Z,59.82
2023-05-15T01:00:46.374Z,60.53
2023-05-15T01:03:13.351Z,59.76
2023-05-15T01:05:40.534Z,60.26
2023-05-15T01:08:26.728Z,61.13
2023-05-15T01:10:55.104Z,60.77
2023-05-15T01:13:22.774Z,60.28
2023-05-15T01:15:50.266Z,60.82
2023-05-15T01:18:17.255Z,61.01
2023-05-15T01:21:02.650Z,61.68
2023-05-15T01:23:32.359Z,61.96
2023-05-15T01:26:31.048Z,61.34
2023-05-15T01:29:03.843Z,61.50
2023-05-15T01:31:34.200Z,61.74
2023-05-15T01:34:06.526Z,61.84
2023-05-15T01:36:42.685Z,61.60
2023-05-15T01:39:11.715Z,62.90
2023-05-15T01:41:48.713Z,62.86
2023-05-15T01:44:25.845Z,63.08
2023-05-15T01:46:57.230Z,68.86
2023-05-15T01:49:27.720Z,67.88
2023-05-15T01:52:25.082Z,66.96
2023-05-15T01:54:54.175Z,67.28
2023-05-15T01:57:22.864Z,67.41
2023-05-15T01:59:51.448Z,65.95
2023-05-15T02:02:19.204Z,66.49
2023-05-15T02:04:48.320Z,66.60
2023-05-15T02:07:16.369Z,68.66
2023-05-15T02:09:44.953Z,68.84
2023-05-15T02:12:13.020Z,67.87
2023-05-15T02:14:41.021Z,70.51
2023-05-15T02:17:07.979Z,69.92
2023-05-15T02:19:35.291Z,70.77
2023-05-15T02:22:03.260Z,70.56
2023-05-15T02:24:30.098Z,70.96
2023-05-15T02:27:06.675Z,69.09
2023-05-15T02:29:39.763Z,70.92
2023-05-15T02:32:26.168Z,70.20
2023-05-15T02:35:15.941Z,70.31
2023-05-15T02:37:47.445Z,70.95
2023-05-15T02:40:16.202Z,70.36
2023-05-15T02:42:46.769Z,70.31
2023-05-15T02:45:14.478Z,69.90
2023-05-15T02:47:42.087Z,69.29
2023-05-15T02:50:09.695Z,69.87
2023-05-15T02:52:36.744Z,70.39
2023-05-15T02:55:04.213Z,70.53
2023-05-15T02:57:31.036Z,69.61
2023-05-15T02:59:57.980Z,69.26
2023-05-15T03:02:25.056Z,70.41
2023-05-15T03:04:51.975Z,70.24
2023-05-15T03:07:19.120Z,69.89
2023-05-15T03:09:46.165Z,70.13
2023-05-15T03:12:12.911Z,69.64
2023-05-15T03:14:39.648Z,70.84
2023-05-15T03:17:06.816Z,71.05
2023-05-15T03:19:33.748Z,70.30
2023-05-15T03:22:00.612Z,70.35
2023-05-15T03:24:27.528Z,70.29
2023-05-15T03:26:54.391Z,70.58
2023-05-15T03:29:21.233Z,70.87
2023-05-15T03:31:48.133Z,70.77
2023-05-15T03:34:15.101Z,71.16
2023-05-15T03:36:43.028Z,69.79
2023-05-15T03:39:10.938Z,69.33
2023-05-15T03:41:38.086Z,68.11
2023-05-15T03:44:05.440Z,67.42
2023-05-15T03:46:32.363Z,66.05
2023-05-15T03:48:59.331Z,65.25
2023-05-15T03:51:26.594Z,63.95
2023-05-15T03:53:54.352Z,63.85
2023-05-15T03:56:23.236Z,60.97
2023-05-15T03:58:50.182Z,60.80
2023-05-15T04:01:17.001Z,60.92
2023-05-15T04:03:43.813Z,59.93
2023-05-15T04:06:10.717Z,60.24
2023-05-15T04:08:39.179Z,58.98
2023-05-15T04:11:06.750Z,58.06
2023-05-15T04:13:33.593Z,57.22
2023-05-15T04:16:00.577Z,56.63
2023-05-15T04:18:27.518Z,56.73
2023-05-15T04:20:54.333Z,56.34
2023-05-15T04:23:21.100Z,55.30
2023-05-15T04:25:48.416Z,52.27
2023-05-15T04:28:16.489Z,52.15
2023-05-15T04:30:43.227Z,52.62
2023-05-15T04:33:10.694Z,49.92
2023-05-15T04:35:37.631Z,49.71
2023-05-15T04:38:04.475Z,47.05
2023-05-15T04:40:31.621Z,47.70
2023-05-15T04:42:58.469Z,47.47
2023-05-15T04:45:25.673Z,47.10
2023-05-15T04:47:53.019Z,45.98
2023-05-15T04:50:19.931Z,45.34
2023-05-15T04:52:47.182Z,45.75
2023-05-15T04:55:14.111Z,45.89
2023-05-15T04:57:41.052Z,45.79
2023-05-15T05:00:11.504Z,45.38
2023-05-15T05:02:39.694Z,44.23
2023-05-15T05:05:08.447Z,43.84
2023-05-15T05:07:35.387Z,43.58
2023-05-15T05:10:03.767Z,42.66
2023-05-15T05:12:30.503Z,40.64
2023-05-15T05:14:57.349Z,40.47
2023-05-15T05:17:24.248Z,38.33
2023-05-15T05:19:51.135Z,37.31
2023-05-15T05:22:17.873Z,37.14
2023-05-15T05:24:44.716Z,35.55
2023-05-15T05:27:11.664Z,35.57
2023-05-15T05:29:39.630Z,34.78
2023-05-15T05:32:07.199Z,34.09
2023-05-15T05:34:34.546Z,33.60
2023-05-15T05:37:01.395Z,33.15
2023-05-15T05:39:28.335Z,32.48
2023-05-15T05:41:55.276Z,32.02
2023-05-15T05:44:22.530Z,31.63
2023-05-15T05:46:49.345Z,30.95
2023-05-15T05:49:16.512Z,30.29
2023-05-15T05:51:46.429Z,30.77
2023-05-15T05:54:14.499Z,29.68
2023-05-15T05:56:42.895Z,28.57
2023-05-15T05:59:09.923Z,28.71
2023-05-15T06:01:36.880Z,26.70
2023-05-15T06:04:04.494Z,27.33
2023-05-15T06:06:31.476Z,27.56
2023-05-15T06:08:58.544Z,26.45
2023-05-15T06:11:25.743Z,26.67
2023-05-15T06:13:52.854Z,26.32
2023-05-15T06:16:19.815Z,25.92
2023-05-15T06:18:46.787Z,25.46
2023-05-15T06:21:13.652Z,25.39
2023-05-15T06:23:40.403Z,24.74
2023-05-15T06:26:07.446Z,25.26
2023-05-15T06:28:34.290Z,24.37
2023-05-15T06:31:01.096Z,25.41
2023-05-15T06:33:27.980Z,25.61
2023-05-15T06:35:54.917Z,25.93
2023-05-15T06:38:21.660Z,26.36
2023-05-15T06:40:48.609Z,26.49
2023-05-15T06:43:15.551Z,26.99
2023-05-15T06:45:42.457Z,27.20
2023-05-15T06:48:10.029Z,27.44
2023-05-15T06:50:36.900Z,27.66
2023-05-15T06:53:05.371Z,27.74
2023-05-15T06:55:34.169Z,27.71
2023-05-15T06:58:01.005Z,27.62
2023-05-15T07:00:27.849Z,27.80
2023-05-15T07:02:54.926Z,28.07
2023-05-15T07:05:21.939Z,27.86
2023-05-15T07:07:48.989Z,28.03
2023-05-15T07:10:15.829Z,28.00
2023-05-15T07:12:42.573Z,28.43
2023-05-15T07:15:10.031Z,28.35
2023-05-15T07:17:37.100Z,28.36
2023-05-15T07:20:05.544Z,28.43
2023-05-15T07:22:34.373Z,28.49
2023-05-15T07:25:03.746Z,29.29
2023-05-15T07:27:30.601Z,28.74
2023-05-15T07:29:57.430Z,28.52
2023-05-15T07:32:24.283Z,29.00
2023-05-15T07:34:52.071Z,28.73
2023-05-15T07:37:18.911Z,29.00
2023-05-15T07:39:50.078Z,29.11
2023-05-15T07:42:16.976Z,29.73
2023-05-15T07:44:45.404Z,29.58
2023-05-15T07:47:13.719Z,29.85
2023-05-15T07:49:40.770Z,29.85
2023-05-15T07:52:07.651Z,29.59
2023-05-15T07:54:34.664Z,30.14
2023-05-15T07:57:02.017Z,29.94
2023-05-15T07:59:30.552Z,29.29
2023-05-15T08:01:57.886Z,29.77
2023-05-15T08:04:24.853Z,29.87
2023-05-15T08:06:51.953Z,29.81
2023-05-15T08:09:19.104Z,29.89
2023-05-15T08:11:45.940Z,29.78
2023-05-15T08:14:13.892Z,29.50
2023-05-15T08:16:41.052Z,29.86
2023-05-15T08:19:09.884Z,29.52
2023-05-15T08:21:36.780Z,29.51
2023-05-15T08:24:04.143Z,29.70
2023-05-15T08:26:33.230Z,29.30
2023-05-15T08:29:00.172Z,29.73
2023-05-15T08:31:27.133Z,29.51
2023-05-15T08:33:54.065Z,29.21
2023-05-15T08:36:21.334Z,29.48
2023-05-15T08:38:48.259Z,29.23
2023-05-15T08:41:39.946Z,29.17
2023-05-15T08:44:10.438Z,29.16
2023-05-15T08:46:38.338Z,29.31
2023-05-15T08:49:14.254Z,29.02
2023-05-15T08:51:41.248Z,28.68
2023-05-15T08:54:08.230Z,28.56
2023-05-15T08:56:35.889Z,28.88
2023-05-15T08:59:03.964Z,28.94
2023-05-15T09:01:31.126Z,28.71
2023-05-15T09:03:58.001Z,28.70
2023-05-15T09:06:25.823Z,28.27
2023-05-15T09:08:56.209Z,28.08
2023-05-15T09:11:26.468Z,28.60
2023-05-15T09:13:56.690Z,28.40
2023-05-15T09:16:23.809Z,27.79
2023-05-15T09:18:52.910Z,27.39
2023-05-15T09:21:24.930Z,27.73
2023-05-15T09:24:14.470Z,27.57
2023-05-15T09:26:42.556Z,27.63
2023-05-15T09:29:09.796Z,28.29
2023-05-15T09:31:37.661Z,28.64
2023-05-15T09:34:06.034Z,28.18
2023-05-15T09:36:32.798Z,28.29
2023-05-15T09:39:00.973Z,28.20
2023-05-15T09:41:28.734Z,28.14
2023-05-15T09:43:56.188Z,28.16
2023-05-15T09:46:23.879Z,28.32
2023-05-15T09:48:55.181Z,28.42
2023-05-15T09:51:22.137Z,28.52
2023-05-15T09:53:52.229Z,28.32
2023-05-15T09:56:19.668Z,28.88
2023-05-15T09:58:58.278Z,29.73
2023-05-15T10:01:26.822Z,29.58
2023-05-15T10:04:00.813Z,29.59
2023-05-15T10:06:34.614Z,29.68
2023-05-15T10:09:04.040Z,29.82
2023-05-15T10:11:37.010Z,29.46
2023-05-15T10:14:09.096Z,29.69
2023-05-15T10:16:37.738Z,29.67
2023-05-15T10:19:10.316Z,29.21
2023-05-15T10:21:38.092Z,29.56
2023-05-15T10:24:06.068Z,30.04
2023-05-15T10:26:39.667Z,30.04
2023-05-15T10:29:09.579Z,29.78
2023-05-15T10:31:37.176Z,30.18
2023-05-15T10:34:05.211Z,30.40
2023-05-15T10:36:33.384Z,30.32
2023-05-15T10:39:02.683Z,29.89
2023-05-15T10:41:30.670Z,29.96
2023-05-15T10:43:59.451Z,30.04
2023-05-15T10:46:28.556Z,30.34
2023-05-15T10:48:55.991Z,30.86
2023-05-15T10:51:28.367Z,31.56
2023-05-15T10:53:56.332Z,30.76
2023-05-15T10:56:41.813Z,30.84
2023-05-15T10:59:10.619Z,30.87
2023-05-15T11:01:41.087Z,30.57
2023-05-15T11:04:08.004Z,30.28
2023-05-15T11:06:36.354Z,30.73
2023-05-15T11:09:21.682Z,30.53
2023-05-15T11:11:51.784Z,30.97
2023-05-15T11:14:19.811Z,30.60
2023-05-15T11:16:52.774Z,30.48
2023-05-15T11:19:26.254Z,30.14
2023-05-15T11:21:57.337Z,30.31
2023-05-15T11:24:31.276Z,30.15
2023-05-15T11:27:02.902Z,30.67
2023-05-15T11:29:31.069Z,30.48
2023-05-15T11:31:59.146Z,30.90
2023-05-15T11:34:40.829Z,30.60
2023-05-15T11:37:16.479Z,30.69
2023-05-15T11:39:44.041Z,30.83
2023-05-15T11:42:12.346Z,30.34
2023-05-15T11:44:40.284Z,30.73
2023-05-15T11:47:10.811Z,30.87
2023-05-15T11:49:38.986Z,30.74
2023-05-15T11:52:06.440Z,30.83
2023-05-15T11:54:33.500Z,31.67
2023-05-15T11:57:01.456Z,31.56
2023-05-15T11:59:28.312Z,31.36
2023-05-15T12:01:55.251Z,31.23
2023-05-15T12:04:22.695Z,30.87
2023-05-15T12:06:50.378Z,31.04
2023-05-15T12:09:18.714Z,31.27
2023-05-15T12:11:52.688Z,31.01
2023-05-15T12:14:30.048Z,30.86
2023-05-15T12:17:03.964Z,31.04
2023-05-15T12:19:33.340Z,30.95
2023-05-15T12:22:00.506Z,30.88
2023-05-15T12:24:27.345Z,30.97
2023-05-15T12:26:57.191Z,31.16
2023-05-15T12:29:26.139Z,31.34
2023-05-15T12:31:53.458Z,31.73
2023-05-15T12:34:21.382Z,31.74
2023-05-15T12:36:48.523Z,31.32
2023-05-15T12:39:15.368Z,31.54
2023-05-15T12:41:44.359Z,31.62
2023-05-15T12:44:17.585Z,31.26
2023-05-15T12:46:45.620Z,31.70
2023-05-15T12:49:13.196Z,31.84
2023-05-15T12:51:43.502Z,31.40
2023-05-15T12:54:20.289Z,31.60
2023-05-15T12:56:48.450Z,31.70
2023-05-15T12:59:15.510Z,31.76
2023-05-15T13:01:42.528Z,32.09
2023-05-15T13:04:09.912Z,32.23
2023-05-15T13:06:46.221Z,32.23
2023-05-15T13:09:20.682Z,32.69
2023-05-15T13:11:47.930Z,32.30
2023-05-15T13:14:17.794Z,32.75
2023-05-15T13:16:46.119Z,32.81
2023-05-15T13:19:14.035Z,31.67
2023-05-15T13:21:41.038Z,31.06
2023-05-15T13:24:10.090Z,30.79
2023-05-15T13:26:36.888Z,30.17
2023-05-15T13:29:03.707Z,30.39
2023-05-15T13:31:31.609Z,30.42
2023-05-15T13:33:58.314Z,30.01
2023-05-15T13:36:25.265Z,29.67
2023-05-15T13:38:52.094Z,30.12
2023-05-15T13:41:18.945Z,30.32
2023-05-15T13:43:47.337Z,29.96
2023-05-15T13:46:14.415Z,29.69
2023-05-15T13:48:41.321Z,30.51
2023-05-15T13:51:09.859Z,31.20
2023-05-15T13:53:36.751Z,31.75
2023-05-15T13:56:03.829Z,31.71
2023-05-15T13:58:30.638Z,31.72
2023-05-15T14:00:57.557Z,31.71
2023-05-15T14:03:24.409Z,31.44
2023-05-15T14:05:51.367Z,31.92
2023-05-15T14:08:18.311Z,32.02
2023-05-15T14:10:45.052Z,31.79
2023-05-15T14:13:11.792Z,32.06
2023-05-15T14:15:38.531Z,32.02
2023-05-15T14:18:05.358Z,32.01
2023-05-15T14:20:35.086Z,32.34
2023-05-15T14:23:02.132Z,31.91
2023-05-15T14:25:28.972Z,31.38
2023-05-15T14:27:55.721Z,31.13
2023-05-15T14:30:22.964Z,31.84
2023-05-15T14:32:50.154Z,31.79
2023-05-15T14:35:17.059Z,31.66
2023-05-15T14:37:44.616Z,31.40
2023-05-15T14:40:12.081Z,31.10
2023-05-15T14:42:40.053Z,31.17
2023-05-15T14:45:07.607Z,30.76
2023-05-15T14:47:34.525Z,30.53
2023-05-15T14:50:01.385Z,29.11
2023-05-15T14:52:28.232Z,28.91
2023-05-15T14:55:07.982Z,28.46
2023-05-15T14:57:37.489Z,28.73
2023-05-15T15:00:06.180Z,28.66
2023-05-15T15:02:33.502Z,27.76
2023-05-15T15:05:00.661Z,28.49
2023-05-15T15:07:30.055Z,28.26
2023-05-15T15:09:56.824Z,28.58
2023-05-15T15:12:23.647Z,28.59
2023-05-15T15:14:50.508Z,28.66
2023-05-15T15:17:17.848Z,29.06
2023-05-15T15:19:44.701Z,29.41
2023-05-15T15:22:11.532Z,29.71
2023-05-15T15:24:38.370Z,29.99
2023-05-15T15:27:06.551Z,29.64
2023-05-15T15:29:33.390Z,30.03
2023-05-15T15:32:00.328Z,29.87
2023-05-15T15:34:27.077Z,29.90
2023-05-15T15:36:53.971Z,29.69
2023-05-15T15:39:20.873Z,29.54
2023-05-15T15:41:47.599Z,29.50
2023-05-15T15:44:14.346Z,29.57
2023-05-15T15:46:41.182Z,29.94
2023-05-15T15:49:08.126Z,30.24
2023-05-15T15:51:35.073Z,29.95
2023-05-15T15:54:01.914Z,30.10
2023-05-15T15:56:28.659Z,30.15
2023-05-15T15:58:55.709Z,30.48
2023-05-15T16:01:23.303Z,30.90
2023-05-15T16:03:50.262Z,30.92
2023-05-15T16:06:17.152Z,30.42
2023-05-15T16:08:44.098Z,30.68
2023-05-15T16:11:11.109Z,30.38
2023-05-15T16:13:39.238Z,30.36
2023-05-15T16:16:08.412Z,30.57
2023-05-15T16:18:35.214Z,30.84
2023-05-15T16:21:02.101Z,31.24
2023-05-15T16:23:35.821Z,31.42
2023-05-15T16:26:04.200Z,31.65
2023-05-15T16:28:31.430Z,31.89
2023-05-15T16:30:59.319Z,31.89
2023-05-15T16:33:26.649Z,31.93
2023-05-15T16:38:20.543Z,31.77
2023-05-15T16:40:47.283Z,31.78
2023-05-15T16:43:15.043Z,31.40
2023-05-15T16:45:43.935Z,31.74
2023-05-15T16:48:11.037Z,31.80
2023-05-15T16:50:37.946Z,32.02
2023-05-15T16:53:05.022Z,32.09
2023-05-15T16:55:32.946Z,32.13
2023-05-15T16:57:59.885Z,32.45
2023-05-15T17:00:27.148Z,32.47
2023-05-15T17:02:54.559Z,32.51
2023-05-15T17:05:21.538Z,32.28
2023-05-15T17:07:48.692Z,32.36
2023-05-15T17:10:15.630Z,32.56
2023-05-15T17:12:42.679Z,32.50
2023-05-15T17:15:10.989Z,32.59
2023-05-15T17:17:38.152Z,32.69
2023-05-15T17:20:06.070Z,33.05
2023-05-15T17:22:33.155Z,33.04
2023-05-15T17:25:00.060Z,33.36
2023-05-15T17:27:26.804Z,33.27
2023-05-15T17:29:53.745Z,33.08
2023-05-15T17:32:20.996Z,32.94
2023-05-15T17:34:49.686Z,33.00
2023-05-15T17:37:16.734Z,33.32
2023-05-15T17:39:43.716Z,33.46
2023-05-15T17:42:12.042Z,33.94
2023-05-15T17:44:39.003Z,33.96
2023-05-15T17:47:06.360Z,33.97
2023-05-15T17:49:34.030Z,33.97
2023-05-15T17:52:01.173Z,34.32
2023-05-15T17:54:27.904Z,34.21
2023-05-15T17:56:54.968Z,34.84
2023-05-15T17:59:21.694Z,34.94
2023-05-15T18:01:48.613Z,35.07
2023-05-15T18:04:15.721Z,35.47
2023-05-15T18:06:42.840Z,35.82
2023-05-15T18:09:11.314Z,36.17
2023-05-15T18:11:38.164Z,36.25
2023-05-15T18:14:05.099Z,36.12
2023-05-15T18:16:32.177Z,36.37
2023-05-15T18:18:59.755Z,36.40
2023-05-15T18:21:26.750Z,36.48
2023-05-15T18:23:53.797Z,36.50
2023-05-15T18:26:20.957Z,36.74
2023-05-15T18:28:48.822Z,36.55
2023-05-15T18:31:15.721Z,36.56
2023-05-15T18:33:44.445Z,36.57
2023-05-15T18:36:11.293Z,36.58
2023-05-15T18:38:38.132Z,36.89
2023-05-15T18:41:05.286Z,36.99
2023-05-15T18:43:32.227Z,36.69
2023-05-15T18:45:58.966Z,36.87
2023-05-15T18:48:25.808Z,36.90
2023-05-15T18:50:53.676Z,37.32
2023-05-15T18:53:21.037Z,37.24
2023-05-15T18:55:47.898Z,37.93
2023-05-15T18:58:14.710Z,38.18
2023-05-15T19:00:41.765Z,38.65
2023-05-15T19:03:09.113Z,38.72
2023-05-15T19:05:36.071Z,39.01
2023-05-15T19:08:06.690Z,39.78
2023-05-15T19:10:33.634Z,39.53
2023-05-15T19:13:00.323Z,40.34
2023-05-15T19:15:27.217Z,40.37
2023-05-15T19:17:54.095Z,40.49
2023-05-15T19:20:20.934Z,41.76
2023-05-15T19:22:47.742Z,41.56
2023-05-15T19:25:15.097Z,41.65
2023-05-15T19:27:42.045Z,42.17
2023-05-15T19:30:09.412Z,42.55
2023-05-15T19:32:36.923Z,42.76
2023-05-15T19:35:04.884Z,44.05
2023-05-15T19:37:31.765Z,44.45
2023-05-15T19:39:58.608Z,44.23
2023-05-15T19:42:25.858Z,44.70
2023-05-15T19:44:52.704Z,44.85
2023-05-15T19:47:19.541Z,44.93
2023-05-15T19:49:46.283Z,45.59
2023-05-15T19:52:13.021Z,45.48
2023-05-15T19:54:39.785Z,45.72
2023-05-15T19:57:06.600Z,45.89
2023-05-15T19:59:33.348Z,46.11
2023-05-15T20:02:01.053Z,46.48
2023-05-15T20:04:28.565Z,46.36
2023-05-15T20:06:55.618Z,46.30
2023-05-15T20:09:22.764Z,46.73
2023-05-15T20:11:49.838Z,46.66
2023-05-15T20:14:17.159Z,47.09
2023-05-15T20:16:44.378Z,46.80
2023-05-15T20:19:11.950Z,46.82
2023-05-15T20:21:39.045Z,46.68
2023-05-15T20:24:06.473Z,46.70
2023-05-15T20:26:35.281Z,46.82
2023-05-15T20:29:02.928Z,46.98
2023-05-15T20:31:29.799Z,46.90
2023-05-15T20:33:56.716Z,46.81
2023-05-15T20:36:25.109Z,46.66
2023-05-15T20:38:52.281Z,46.67
2023-05-15T20:41:21.502Z,46.75
2023-05-15T20:43:50.045Z,46.61
2023-05-15T20:46:16.891Z,46.67
2023-05-15T20:48:44.153Z,46.77
2023-05-15T20:51:10.973Z,47.11
2023-05-15T20:53:37.835Z,46.77
2023-05-15T20:56:04.976Z,46.73
2023-05-15T20:58:31.799Z,47.03
2023-05-15T21:01:00.539Z,47.23
2023-05-15T21:03:28.377Z,47.21
2023-05-15T21:05:57.779Z,47.32
2023-05-15T21:08:24.873Z,47.47
2023-05-15T21:10:54.920Z,47.45
2023-05-15T21:13:21.886Z,47.44
2023-05-15T21:15:50.252Z,47.51
2023-05-15T21:18:19.592Z,47.57
2023-05-15T21:20:46.294Z,47.83
2023-05-15T21:23:13.208Z,48.03
2023-05-15T21:25:42.009Z,48.21
2023-05-15T21:28:10.187Z,48.22
2023-05-15T21:30:37.019Z,48.47
2023-05-15T21:33:03.840Z,48.72
2023-05-15T21:35:31.217Z,48.64
2023-05-15T21:37:58.477Z,49.17
2023-05-15T21:40:25.531Z,49.10
2023-05-15T21:42:52.576Z,49.15
2023-05-15T21:45:19.410Z,49.06
2023-05-15T21:47:46.286Z,49.55
2023-05-15T21:50:13.093Z,49.57
2023-05-15T21:52:39.937Z,49.59
2023-05-15T21:55:07.812Z,49.49
2023-05-15T21:57:34.654Z,49.48
2023-05-15T22:00:02.145Z,49.84
2023-05-15T22:02:31.584Z,49.78
2023-05-15T22:04:58.752Z,50.00
2023-05-15T22:07:25.693Z,49.92
2023-05-15T22:09:52.656Z,49.85
2023-05-15T22:12:19.480Z,49.90
2023-05-15T22:14:57.523Z,49.80
2023-05-15T22:17:26.725Z,49.72
2023-05-15T22:19:53.870Z,49.74
2023-05-15T22:22:20.802Z,49.78
2023-05-15T22:24:47.718Z,49.49
2023-05-15T22:27:16.098Z,49.68
2023-05-15T22:29:42.940Z,49.62
2023-05-15T22:32:10.005Z,49.51
2023-05-15T22:34:37.040Z,50.00
2023-05-15T22:37:04.391Z,49.59
2023-05-15T22:39:31.764Z,49.50
2023-05-15T22:41:58.597Z,49.55
2023-05-15T22:44:25.426Z,49.72
2023-05-15T22:46:52.683Z,49.70
2023-05-15T22:49:23.114Z,49.54
2023-05-15T22:51:50.703Z,49.28
2023-05-15T22:54:21.408Z,49.10
2023-05-15T22:56:51.349Z,49.08
2023-05-15T22:59:18.777Z,49.00
2023-05-15T23:01:46.269Z,48.94
2023-05-15T23:04:13.631Z,48.84
2023-05-15T23:06:40.731Z,48.89
2023-05-15T23:09:08.463Z,48.79
2023-05-15T23:11:37.187Z,48.35
2023-05-15T23:14:04.131Z,48.22
2023-05-15T23:16:31.379Z,48.15
2023-05-15T23:18:58.288Z,48.07
2023-05-15T23:21:25.580Z,48.30
2023-05-15T23:23:52.520Z,48.11
2023-05-15T23:26:19.463Z,47.94
2023-05-15T23:28:46.616Z,47.94
2023-05-15T23:31:14.304Z,47.91
2023-05-15T23:33:41.454Z,47.85
2023-05-15T23:36:08.475Z,48.09
2023-05-15T23:38:35.326Z,47.89
2023-05-15T23:41:02.360Z,48.04
2023-05-15T23:43:29.413Z,48.38
2023-05-15T23:45:56.257Z,48.15
2023-05-15T23:48:23.195Z,47.98
2023-05-15T23:50:51.884Z,47.88
2023-05-15T23:53:18.826Z,47.75
2023-05-15T23:55:45.982Z,47.57
2023-05-15T23:58:12.723Z,47.50
